createdAt,value
2024-03-19T04:46:28.000Z,4.20
2024-03-19T04:48:56.086Z,4.60
2024-03-19T04:51:29.201Z,3.90
2024-03-19T04:53:56.813Z,4.50
2024-03-19T04:56:25.777Z,3.80
2024-03-19T04:58:53.605Z,4.10
2024-03-19T05:01:21.155Z,4.40
2024-03-19T05:03:51.161Z,3.80
2024-03-19T05:06:18.821Z,4.10
2024-03-19T05:08:48.664Z,4.40
2024-03-19T05:11:16.264Z,4.40
2024-03-19T05:13:43.925Z,4.40
2024-03-19T05:16:12.852Z,4.20
2024-03-19T05:18:40.411Z,3.90
2024-03-19T05:21:08.120Z,4.30
2024-03-19T05:23:36.968Z,3.70
2024-03-19T05:26:08.149Z,3.60
2024-03-19T05:28:36.959Z,3.90
2024-03-19T05:31:22.450Z,4.10
2024-03-19T05:33:55.867Z,3.20
2024-03-19T05:36:27.019Z,3.90
2024-03-19T05:38:54.703Z,4.30
2024-03-19T05:41:24.497Z,3.80
2024-03-19T05:43:54.128Z,3.80
2024-03-19T05:46:25.638Z,4.50
2024-03-19T05:48:53.432Z,3.80
2024-03-19T05:51:23.651Z,4.10
2024-03-19T05:53:51.235Z,4.10
2024-03-19T05:56:19.116Z,3.80
2024-03-19T05:58:47.965Z,4.10
2024-03-19T06:01:15.582Z,4.50
2024-03-19T06:03:43.236Z,4.60
2024-03-19T06:06:11.507Z,5.10
2024-03-19T06:08:40.344Z,5.30
2024-03-19T06:11:10.198Z,5.60
2024-03-19T06:13:37.956Z,4.20
2024-03-19T06:16:06.349Z,5.00
2024-03-19T06:18:34.847Z,5.40
2024-03-19T06:21:02.464Z,5.00
2024-03-19T06:23:32.704Z,5.10
2024-03-19T06:26:00.244Z,5.30
2024-03-19T06:28:27.961Z,6.10
2024-03-19T06:30:57.349Z,4.80
2024-03-19T06:33:24.903Z,4.80
2024-03-19T06:35:54.933Z,5.70
2024-03-19T06:38:22.643Z,5.40
2024-03-19T06:40:50.423Z,6.10
2024-03-19T06:43:19.348Z,5.00
2024-03-19T06:45:48.142Z,4.80
2024-03-19T06:48:17.184Z,4.60
2024-03-19T06:50:45.228Z,4.90
2024-03-19T06:53:16.665Z,6.20
2024-03-19T06:55:44.361Z,5.00
2024-03-19T06:58:14.225Z,4.50
2024-03-19T07:00:41.884Z,5.00
2024-03-19T07:03:14.272Z,4.80
2024-03-19T07:05:48.204Z,4.50
2024-03-19T07:08:21.683Z,4.20
2024-03-19T07:10:51.709Z,4.40
2024-03-19T07:13:19.916Z,4.70
2024-03-19T07:15:53.767Z,3.80
2024-03-19T07:18:21.583Z,4.30
2024-03-19T07:20:52.719Z,4.10
2024-03-19T07:23:20.563Z,4.30
2024-03-19T07:25:49.493Z,6.00
2024-03-19T07:28:17.331Z,3.70
2024-03-19T07:30:47.330Z,3.90
2024-03-19T07:33:15.423Z,4.80
2024-03-19T07:35:46.364Z,4.40
2024-03-19T07:38:16.860Z,4.20
2024-03-19T07:40:54.002Z,4.20
2024-03-19T07:43:24.724Z,4.20
2024-03-19T07:45:58.050Z,4.40
2024-03-19T07:48:27.249Z,3.80
2024-03-19T07:50:57.577Z,4.00
2024-03-19T07:53:28.437Z,5.00
2024-03-19T07:55:56.448Z,4.20
2024-03-19T07:58:25.440Z,3.70
2024-03-19T08:00:53.237Z,4.00
2024-03-19T08:03:22.358Z,4.70
2024-03-19T08:06:02.369Z,4.90
2024-03-19T08:08:32.474Z,4.10
2024-03-19T08:11:02.908Z,3.50
2024-03-19T08:13:32.336Z,4.40
2024-03-19T08:16:00.731Z,3.80
2024-03-19T08:18:29.908Z,4.80
2024-03-19T08:20:57.634Z,4.30
2024-03-19T08:23:25.300Z,3.70
2024-03-19T08:25:55.495Z,4.10
2024-03-19T08:28:25.058Z,3.80
2024-03-19T08:30:54.058Z,4.20
2024-03-19T08:33:22.845Z,4.70
2024-03-19T08:35:56.960Z,4.90
2024-03-19T08:38:29.696Z,4.10
2024-03-19T08:40:58.327Z,4.10
2024-03-19T08:43:29.001Z,4.50
2024-03-19T08:45:59.902Z,4.60
2024-03-19T08:48:29.107Z,4.80
2024-03-19T08:50:58.648Z,4.00
2024-03-19T08:53:28.064Z,3.80
2024-03-19T08:55:57.260Z,3.20
2024-03-19T08:58:26.379Z,3.80
2024-03-19T09:00:54.156Z,3.30
2024-03-19T09:03:21.823Z,3.70
2024-03-19T09:05:58.001Z,3.00
2024-03-19T09:08:28.376Z,3.20
2024-03-19T09:10:56.666Z,3.30
2024-03-19T09:13:25.639Z,4.50
2024-03-19T09:15:53.675Z,4.20
2024-03-19T09:18:25.410Z,2.90
2024-03-19T09:20:57.951Z,3.30
2024-03-19T09:23:27.184Z,2.50
2024-03-19T09:26:07.787Z,3.10
2024-03-19T09:28:36.156Z,2.60
2024-03-19T09:31:05.857Z,2.40
2024-03-19T09:33:34.434Z,2.30
2024-03-19T09:36:03.581Z,2.00
2024-03-19T09:38:31.555Z,1.90
2024-03-19T09:41:04.359Z,3.10
2024-03-19T09:43:36.358Z,2.40
2024-03-19T09:46:11.566Z,2.50
2024-03-19T09:48:47.481Z,1.90
2024-03-19T09:51:23.309Z,1.90
2024-03-19T09:53:54.469Z,4.70
2024-03-19T09:56:25.841Z,2.00
2024-03-19T09:58:57.078Z,3.30
2024-03-19T10:01:26.439Z,2.20
2024-03-19T10:03:55.422Z,5.10
2024-03-19T10:06:24.456Z,2.10
2024-03-19T10:08:52.307Z,2.60
2024-03-19T10:11:24.671Z,2.60
2024-03-19T10:13:53.118Z,2.70
2024-03-19T10:16:23.127Z,2.70
2024-03-19T10:18:52.713Z,2.80
2024-03-19T10:21:24.126Z,3.20
2024-03-19T10:23:52.651Z,2.50
2024-03-19T10:26:23.019Z,2.60
2024-03-19T10:28:54.857Z,3.60
2024-03-19T10:31:24.611Z,2.50
2024-03-19T10:34:02.917Z,2.00
2024-03-19T10:36:35.808Z,1.70
2024-03-19T10:39:09.013Z,2.30
2024-03-19T10:41:38.116Z,1.40
2024-03-19T10:44:13.443Z,4.00
2024-03-19T10:46:43.493Z,1.60
2024-03-19T10:49:24.890Z,2.40
2024-03-19T10:52:09.998Z,2.20
2024-03-19T10:54:44.585Z,2.20
2024-03-19T10:57:18.999Z,1.40
2024-03-19T10:59:48.820Z,1.90
2024-03-19T11:02:21.280Z,2.40
2024-03-19T11:04:58.280Z,1.80
2024-03-19T11:07:28.447Z,2.50
2024-03-19T11:09:57.038Z,1.70
2024-03-19T11:12:25.963Z,1.70
2024-03-19T11:14:58.152Z,2.00
2024-03-19T11:17:30.494Z,2.10
2024-03-19T11:19:58.914Z,2.20
2024-03-19T11:22:27.927Z,1.40
2024-03-19T11:24:57.196Z,2.30
2024-03-19T11:27:34.470Z,2.00
2024-03-19T11:30:13.447Z,1.60
2024-03-19T11:32:42.598Z,1.80
2024-03-19T11:35:27.231Z,2.80
2024-03-19T11:37:55.546Z,2.60
2024-03-19T11:40:25.819Z,2.10
2024-03-19T11:42:55.101Z,1.40
2024-03-19T11:45:23.261Z,2.20
2024-03-19T11:47:53.312Z,1.70
2024-03-19T11:50:21.428Z,2.70
2024-03-19T11:52:49.808Z,1.80
2024-03-19T11:55:22.118Z,4.00
2024-03-19T11:57:52.249Z,2.20
2024-03-19T12:00:22.280Z,1.90
2024-03-19T12:02:51.278Z,2.70
2024-03-19T12:05:22.933Z,3.60
2024-03-19T12:07:52.934Z,1.90
2024-03-19T12:10:24.329Z,3.40
2024-03-19T12:12:53.705Z,2.50
2024-03-19T12:15:25.139Z,1.90
2024-03-19T12:17:54.967Z,1.70
2024-03-19T12:20:24.043Z,2.20
2024-03-19T12:22:54.031Z,2.10
2024-03-19T12:25:25.148Z,1.60
2024-03-19T12:27:52.963Z,2.40
2024-03-19T12:30:23.101Z,2.20
2024-03-19T12:33:12.006Z,2.70
2024-03-19T12:35:41.566Z,1.90
2024-03-19T12:38:12.812Z,2.30
2024-03-19T12:40:41.952Z,1.70
2024-03-19T12:43:19.573Z,1.80
2024-03-19T12:45:48.445Z,1.80
2024-03-19T12:48:17.005Z,2.10
2024-03-19T12:50:47.058Z,1.90
2024-03-19T12:53:15.569Z,2.80
2024-03-19T12:55:47.682Z,2.70
2024-03-19T12:58:15.511Z,3.20
2024-03-19T13:00:44.634Z,2.60
2024-03-19T13:03:12.313Z,2.20
2024-03-19T13:05:40.009Z,2.60
2024-03-19T13:08:09.253Z,2.70
2024-03-19T13:10:37.513Z,2.30
2024-03-19T13:13:07.850Z,1.90
2024-03-19T13:15:36.130Z,3.00
2024-03-19T13:18:06.491Z,2.40
2024-03-19T13:20:34.841Z,2.80
2024-03-19T13:23:08.563Z,2.80
2024-03-19T13:25:37.909Z,3.40
2024-03-19T13:28:08.620Z,1.50
2024-03-19T13:30:36.331Z,3.10
2024-03-19T13:33:06.650Z,2.30
2024-03-19T13:35:34.579Z,3.90
2024-03-19T13:38:04.590Z,1.90
2024-03-19T13:40:34.166Z,2.20
2024-03-19T13:43:03.360Z,2.50
2024-03-19T13:45:31.078Z,2.70
2024-03-19T13:48:00.708Z,3.00
2024-03-19T13:50:32.859Z,2.20
2024-03-19T13:55:39.256Z,2.50
2024-03-19T13:58:15.585Z,2.80
2024-03-19T14:00:48.936Z,1.70
2024-03-19T14:03:23.935Z,2.20
2024-03-19T14:06:03.293Z,1.80
2024-03-19T14:08:36.597Z,1.80
2024-03-19T14:11:06.106Z,2.00
2024-03-19T14:13:35.210Z,2.20
2024-03-19T14:16:03.108Z,2.30
2024-03-19T14:18:31.080Z,2.90
2024-03-19T14:21:00.089Z,2.20
2024-03-19T14:23:27.965Z,1.90
2024-03-19T14:25:55.910Z,1.90
2024-03-19T14:28:25.062Z,1.90
2024-03-19T14:30:56.705Z,2.80
2024-03-19T14:33:26.350Z,1.70
2024-03-19T14:35:54.276Z,2.80
2024-03-19T14:38:25.298Z,1.90
2024-03-19T14:40:54.056Z,2.00
2024-03-19T14:43:23.977Z,1.90
2024-03-19T14:45:52.022Z,2.70
2024-03-19T14:48:22.707Z,3.30
2024-03-19T14:50:50.957Z,1.90
2024-03-19T14:53:22.469Z,2.10
2024-03-19T14:55:50.489Z,1.70
2024-03-19T14:58:20.800Z,2.00
2024-03-19T15:00:52.165Z,2.70
2024-03-19T15:03:28.303Z,2.00
2024-03-19T15:05:58.818Z,2.40
2024-03-19T15:08:28.853Z,3.10
2024-03-19T15:11:02.824Z,3.80
2024-03-19T15:13:32.093Z,2.20
2024-03-19T15:16:07.313Z,2.00
2024-03-19T15:18:39.208Z,2.70
2024-03-19T15:21:18.676Z,2.50
2024-03-19T15:24:00.861Z,3.20
2024-03-19T15:26:37.758Z,2.80
2024-03-19T15:29:10.557Z,2.70
2024-03-19T15:31:41.428Z,3.10
2024-03-19T15:34:10.506Z,2.50
2024-03-19T15:36:39.063Z,2.60
2024-03-19T15:39:09.312Z,2.60
2024-03-19T15:41:37.587Z,2.10
2024-03-19T15:44:07.646Z,2.40
2024-03-19T15:46:35.621Z,2.10
2024-03-19T15:49:05.805Z,6.40
2024-03-19T15:51:33.672Z,3.70
2024-03-19T15:54:02.277Z,3.70
2024-03-19T15:56:31.896Z,7.50
2024-03-19T15:59:02.006Z,7.20
2024-03-19T16:01:34.984Z,9.00
2024-03-19T16:04:08.390Z,11.20
2024-03-19T16:06:36.884Z,10.90
2024-03-19T16:09:10.976Z,13.10
2024-03-19T16:11:47.613Z,10.50
2024-03-19T16:14:18.719Z,11.10
2024-03-19T16:16:48.299Z,11.40
2024-03-19T16:19:17.072Z,11.30
2024-03-19T16:21:50.362Z,14.10
2024-03-19T16:24:19.013Z,11.00
2024-03-19T16:26:48.798Z,14.90
2024-03-19T16:29:17.061Z,9.50
2024-03-19T16:31:48.490Z,12.50
2024-03-19T16:34:22.188Z,12.50
2024-03-19T16:36:52.311Z,14.30
2024-03-19T16:39:21.270Z,8.70
2024-03-19T16:41:51.464Z,12.80
2024-03-19T16:44:20.101Z,8.40
2024-03-19T16:46:53.752Z,13.10
2024-03-19T16:49:28.598Z,14.10
2024-03-19T16:51:57.204Z,11.80
2024-03-19T16:54:26.883Z,11.40
2024-03-19T16:56:57.626Z,11.40
2024-03-19T16:59:28.220Z,13.80
2024-03-19T17:01:57.390Z,10.40
2024-03-19T17:04:28.786Z,10.30
2024-03-19T17:06:57.552Z,9.90
2024-03-19T17:09:27.814Z,11.00
2024-03-19T17:11:55.591Z,16.80
2024-03-19T17:14:25.826Z,11.50
2024-03-19T17:16:53.655Z,14.00
2024-03-19T17:19:21.550Z,13.60
2024-03-19T17:21:52.567Z,14.90
2024-03-19T17:24:21.397Z,16.70
2024-03-19T17:26:50.317Z,19.50
2024-03-19T17:29:18.938Z,17.80
2024-03-19T17:31:49.202Z,21.40
2024-03-19T17:34:19.749Z,21.70
2024-03-19T17:36:49.694Z,21.80
2024-03-19T17:39:18.112Z,18.40
2024-03-19T17:41:47.315Z,25.00
2024-03-19T17:44:15.673Z,19.70
2024-03-19T17:46:46.021Z,17.90
2024-03-19T17:49:17.835Z,22.00
2024-03-19T17:54:15.101Z,19.50
2024-03-19T17:56:51.276Z,15.20
2024-03-19T17:59:21.422Z,15.70
2024-03-19T18:01:50.461Z,17.00
2024-03-19T18:04:19.800Z,15.80
2024-03-19T18:06:47.638Z,21.50
2024-03-19T18:09:18.822Z,17.80
2024-03-19T18:11:48.021Z,17.20
2024-03-19T18:14:17.120Z,21.00
2024-03-19T18:19:27.725Z,20.10
2024-03-19T18:21:56.974Z,20.00
2024-03-19T18:24:28.523Z,18.90
2024-03-19T18:26:57.216Z,19.70
2024-03-19T18:29:26.656Z,19.40
2024-03-19T18:31:56.228Z,17.40
2024-03-19T18:34:29.691Z,17.40
2024-03-19T18:36:58.960Z,23.70
2024-03-19T18:39:28.625Z,18.20
2024-03-19T18:44:53.123Z,15.60
2024-03-19T18:47:20.988Z,16.10
2024-03-19T18:49:49.587Z,17.20
2024-03-19T18:52:19.103Z,18.50
2024-03-19T18:54:46.949Z,15.40
2024-03-19T18:57:18.789Z,16.80
2024-03-19T18:59:46.883Z,16.20
2024-03-19T19:02:16.098Z,15.60
2024-03-19T19:04:44.091Z,15.70
2024-03-19T19:07:11.837Z,14.80
2024-03-19T19:09:41.010Z,16.50
2024-03-19T19:12:09.390Z,17.40
2024-03-19T19:14:39.407Z,16.00
2024-03-19T19:17:08.003Z,13.70
2024-03-19T19:19:38.112Z,13.50
2024-03-19T19:22:06.514Z,18.90
2024-03-19T19:24:38.070Z,13.60
2024-03-19T19:27:06.321Z,15.00
2024-03-19T19:29:35.314Z,16.60
2024-03-19T19:32:03.284Z,13.30
2024-03-19T19:34:32.417Z,16.10
2024-03-19T19:37:02.524Z,16.70
2024-03-19T19:39:32.470Z,18.20
2024-03-19T19:42:02.687Z,20.40
2024-03-19T19:44:33.239Z,14.80
2024-03-19T19:47:04.360Z,15.50
2024-03-19T19:49:35.259Z,13.70
2024-03-19T19:52:04.822Z,15.90
2024-03-19T19:54:32.543Z,14.00
2024-03-19T19:57:01.129Z,16.50
2024-03-19T19:59:29.093Z,15.70
2024-03-19T20:01:59.309Z,15.90
2024-03-19T20:04:27.173Z,13.40
2024-03-19T20:06:57.079Z,14.20
2024-03-19T20:09:24.682Z,14.00
2024-03-19T20:11:52.310Z,14.20
2024-03-19T20:14:20.580Z,11.60
2024-03-19T20:16:48.656Z,12.30
2024-03-19T20:19:17.542Z,13.60
2024-03-19T20:21:46.948Z,11.00
2024-03-19T20:24:16.272Z,12.30
2024-03-19T20:26:45.338Z,10.80
2024-03-19T20:29:14.642Z,10.20
2024-03-19T20:31:43.842Z,10.80
2024-03-19T20:34:12.469Z,9.80
2024-03-19T20:36:42.640Z,8.70
2024-03-19T20:39:10.921Z,9.80
2024-03-19T20:41:42.415Z,11.10
2024-03-19T20:44:11.983Z,9.70
2024-03-19T20:46:41.792Z,10.40
2024-03-19T20:49:09.495Z,9.60
2024-03-19T20:51:39.370Z,7.50
2024-03-19T20:54:07.447Z,8.90
2024-03-19T20:56:37.884Z,8.40
2024-03-19T20:59:09.023Z,9.50
2024-03-19T21:01:38.121Z,8.50
2024-03-19T21:04:05.949Z,8.70
2024-03-19T21:06:33.549Z,11.40
2024-03-19T21:09:03.150Z,9.60
2024-03-19T21:11:31.030Z,10.60
2024-03-19T21:14:00.008Z,11.20
2024-03-19T21:16:29.772Z,11.60
2024-03-19T21:18:58.916Z,10.70
2024-03-19T21:21:26.791Z,10.40
2024-03-19T21:23:57.618Z,10.90
2024-03-19T21:26:25.385Z,12.40
2024-03-19T21:28:54.386Z,9.90
2024-03-19T21:31:23.779Z,10.00
2024-03-19T21:33:52.675Z,11.10
2024-03-19T21:36:21.457Z,9.90
2024-03-19T21:38:51.681Z,12.40
2024-03-19T21:41:19.347Z,11.40
2024-03-19T21:43:49.462Z,9.90
2024-03-19T21:46:17.127Z,13.00
2024-03-19T21:48:45.112Z,13.10
2024-03-19T21:51:14.045Z,13.70
2024-03-19T21:53:42.057Z,10.70
2024-03-19T21:56:09.719Z,11.10
2024-03-19T21:58:38.610Z,11.70
2024-03-19T22:01:07.808Z,14.40
2024-03-19T22:03:39.776Z,15.70
2024-03-19T22:06:07.538Z,13.40
2024-03-19T22:08:36.534Z,14.00
2024-03-19T22:11:04.703Z,14.00
2024-03-19T22:13:32.364Z,14.00
2024-03-19T22:16:01.359Z,17.00
2024-03-19T22:18:29.128Z,16.00
2024-03-19T22:20:56.901Z,15.20
2024-03-19T22:23:25.795Z,13.90
2024-03-19T22:25:53.546Z,14.20
2024-03-19T22:28:21.208Z,13.40
2024-03-19T22:30:50.203Z,15.70
2024-03-19T22:33:17.991Z,14.30
2024-03-19T22:35:45.737Z,13.70
2024-03-19T22:38:14.818Z,14.10
2024-03-19T22:40:43.106Z,14.90
2024-03-19T22:43:13.030Z,13.10
2024-03-19T22:45:43.852Z,13.50
2024-03-19T22:48:12.954Z,13.10
2024-03-19T22:50:44.401Z,12.90
2024-03-19T22:55:41.265Z,13.20
2024-03-19T22:58:08.928Z,13.20
2024-03-19T23:00:39.764Z,12.80
2024-03-19T23:03:07.529Z,14.50
2024-03-19T23:05:36.522Z,16.40
2024-03-19T23:08:04.595Z,13.10
2024-03-19T23:10:34.505Z,13.70
2024-03-19T23:13:02.178Z,12.30
2024-03-19T23:15:29.940Z,13.30
2024-03-19T23:17:59.072Z,14.70
2024-03-19T23:20:27.003Z,13.00
2024-03-19T23:22:55.075Z,11.90
2024-03-19T23:25:24.176Z,13.90
2024-03-19T23:27:53.268Z,13.10
2024-03-19T23:30:23.632Z,14.20
2024-03-19T23:32:51.454Z,12.70
2024-03-19T23:35:20.756Z,14.10
2024-03-19T23:37:48.626Z,14.10
2024-03-19T23:40:20.381Z,13.70
2024-03-19T23:42:48.058Z,11.50
2024-03-19T23:45:17.336Z,12.30
2024-03-19T23:47:44.894Z,9.90
2024-03-19T23:50:13.386Z,13.00
2024-03-19T23:52:41.455Z,11.70
2024-03-19T23:55:09.943Z,12.50
2024-03-19T23:57:39.954Z,9.90
